createdAt,value
2023-02-12T00:00:46.692Z,3.98
2023-02-12T00:03:39.492Z,3.98
2023-02-12T00:06:15.921Z,3.98
2023-02-12T00:08:52.335Z,3.99
2023-02-12T00:11:28.807Z,3.98
2023-02-12T00:14:03.224Z,3.98
2023-02-12T00:16:36.255Z,3.99
2023-02-12T00:19:08.441Z,3.98
2023-02-12T00:21:40.720Z,3.98
2023-02-12T00:24:12.974Z,3.98
2023-02-12T00:26:45.267Z,3.99
2023-02-12T00:29:17.767Z,3.98
2023-02-12T00:31:50.080Z,3.97
2023-02-12T00:34:22.411Z,3.96
2023-02-12T00:36:54.660Z,3.95
2023-02-12T00:39:26.889Z,3.95
2023-02-12T00:41:59.075Z,3.95
2023-02-12T00:44:31.743Z,3.94
2023-02-12T00:47:07.268Z,3.94
2023-02-12T00:49:41.505Z,3.95
2023-02-12T00:52:13.804Z,3.95
2023-02-12T00:54:46.204Z,3.94
2023-02-12T00:57:19.777Z,3.94
2023-02-12T00:59:52.560Z,3.95
2023-02-12T01:02:26.416Z,3.95
2023-02-12T01:04:59.108Z,3.94
2023-02-12T01:07:31.447Z,3.94
2023-02-12T01:10:03.908Z,3.94
2023-02-12T01:12:36.253Z,3.92
2023-02-12T01:15:10.534Z,3.92
2023-02-12T01:17:43.136Z,3.95
2023-02-12T01:20:21.148Z,3.96
2023-02-12T01:22:54.841Z,3.96
2023-02-12T01:25:27.221Z,3.98
2023-02-12T01:28:02.473Z,3.99
2023-02-12T01:30:34.966Z,3.99
2023-02-12T01:33:07.342Z,3.99
2023-02-12T01:35:40.272Z,3.99
2023-02-12T01:38:12.691Z,4.00
2023-02-12T01:40:45.697Z,4.02
2023-02-12T01:43:18.306Z,4.02
2023-02-12T01:45:56.395Z,4.01
2023-02-12T01:48:32.642Z,4.02
2023-02-12T01:51:11.219Z,4.02
2023-02-12T01:53:48.559Z,4.02
2023-02-12T01:56:21.507Z,4.01
2023-02-12T01:58:55.722Z,4.00
2023-02-12T02:01:32.304Z,3.99
2023-02-12T02:04:10.147Z,3.99
2023-02-12T02:06:49.434Z,3.98
2023-02-12T02:09:22.391Z,3.98
2023-02-12T02:12:12.790Z,3.97
2023-02-12T02:14:46.420Z,3.97
2023-02-12T02:17:42.962Z,3.97
2023-02-12T02:21:04.864Z,3.96
2023-02-12T02:24:22.576Z,3.95
2023-02-12T02:27:14.264Z,3.90
2023-02-12T02:29:58.158Z,3.91
2023-02-12T02:32:33.829Z,3.92
2023-02-12T02:35:16.910Z,3.95
2023-02-12T02:37:57.926Z,3.97
2023-02-12T02:40:40.227Z,3.98
2023-02-12T02:43:17.441Z,3.98
2023-02-12T02:45:54.422Z,3.95
2023-02-12T02:48:33.488Z,3.94
2023-02-12T02:51:09.819Z,3.93
2023-02-12T02:53:46.559Z,3.90
2023-02-12T02:56:21.353Z,3.92
2023-02-12T02:59:00.629Z,3.91
2023-02-12T03:01:37.862Z,3.91
2023-02-12T03:04:13.465Z,3.91
2023-02-12T03:06:51.952Z,3.88
2023-02-12T03:09:30.247Z,3.87
2023-02-12T03:12:07.767Z,3.87
2023-02-12T03:14:46.872Z,3.88
2023-02-12T03:17:23.584Z,3.89
2023-02-12T03:20:01.652Z,3.87
2023-02-12T03:22:37.603Z,3.85
2023-02-12T03:25:16.344Z,3.84
2023-02-12T03:27:54.322Z,3.82
2023-02-12T03:30:30.630Z,3.81
2023-02-12T03:33:12.025Z,3.79
2023-02-12T03:35:54.797Z,3.78
2023-02-12T03:38:35.872Z,3.78
2023-02-12T03:41:13.802Z,3.78
2023-02-12T03:43:53.810Z,3.76
2023-02-12T03:46:32.646Z,3.75
2023-02-12T03:49:11.763Z,3.74
2023-02-12T03:51:46.258Z,3.74
2023-02-12T03:54:20.924Z,3.75
2023-02-12T03:56:57.336Z,3.75
2023-02-12T03:59:30.396Z,3.73
2023-02-12T04:02:02.852Z,3.73
2023-02-12T04:04:36.208Z,3.74
2023-02-12T04:07:08.839Z,3.76
2023-02-12T04:09:41.555Z,3.76
2023-02-12T04:12:35.455Z,3.73
2023-02-12T04:15:24.828Z,3.72
2023-02-12T04:18:07.360Z,3.70
2023-02-12T04:20:50.055Z,3.65
2023-02-12T04:23:38.445Z,3.60
2023-02-12T04:26:18.755Z,3.56
2023-02-12T04:28:59.619Z,3.53
2023-02-12T04:31:35.536Z,3.52
2023-02-12T04:34:15.811Z,3.49
2023-02-12T04:36:58.580Z,3.46
2023-02-12T04:39:35.247Z,3.39
2023-02-12T04:42:08.859Z,3.34
2023-02-12T04:44:45.555Z,3.30
2023-02-12T04:47:18.723Z,3.25
2023-02-12T04:49:51.131Z,3.21
2023-02-12T04:52:23.352Z,3.14
2023-02-12T04:54:56.135Z,3.06
2023-02-12T04:57:28.592Z,3.02
2023-02-12T05:00:01.132Z,2.94
2023-02-12T05:02:34.287Z,2.87
2023-02-12T05:05:07.398Z,2.78
2023-02-12T05:07:39.707Z,2.70
2023-02-12T05:10:13.349Z,2.66
2023-02-12T05:12:45.606Z,2.60
2023-02-12T05:15:20.397Z,2.56
2023-02-12T05:17:52.738Z,2.51
2023-02-12T05:20:25.444Z,2.46
2023-02-12T05:22:58.097Z,2.41
2023-02-12T05:25:32.459Z,2.37
2023-02-12T05:28:05.013Z,2.33
2023-02-12T05:30:37.387Z,2.29
2023-02-12T05:33:12.287Z,2.25
2023-02-12T05:35:44.627Z,2.21
2023-02-12T05:38:18.277Z,2.21
2023-02-12T05:40:50.608Z,2.20
2023-02-12T05:43:26.344Z,2.18
2023-02-12T05:46:02.043Z,2.15
2023-02-12T05:48:35.318Z,2.14
2023-02-12T05:51:10.199Z,2.12
2023-02-12T05:53:43.396Z,2.13
2023-02-12T05:56:18.448Z,2.14
2023-02-12T05:58:53.896Z,2.14
2023-02-12T06:01:28.869Z,2.15
2023-02-12T06:04:08.843Z,2.16
2023-02-12T06:06:42.325Z,2.13
2023-02-12T06:09:15.787Z,2.03
2023-02-12T06:11:48.806Z,1.93
2023-02-12T06:14:22.544Z,1.88
2023-02-12T06:16:55.287Z,1.81
2023-02-12T06:19:28.003Z,1.74
2023-02-12T06:22:00.296Z,1.71
2023-02-12T06:24:32.667Z,1.69
2023-02-12T06:27:05.843Z,1.67
2023-02-12T06:29:38.036Z,1.66
2023-02-12T06:32:13.704Z,1.66
2023-02-12T06:34:45.984Z,1.64
2023-02-12T06:37:18.299Z,1.61
2023-02-12T06:39:50.953Z,1.62
2023-02-12T06:42:23.566Z,1.63
2023-02-12T06:44:55.773Z,1.60
2023-02-12T06:47:28.062Z,1.60
2023-02-12T06:50:00.366Z,1.60
2023-02-12T06:52:32.688Z,1.60
2023-02-12T06:55:05.039Z,1.65
2023-02-12T06:57:37.233Z,1.71
2023-02-12T07:00:12.165Z,1.73
2023-02-12T07:02:44.350Z,1.69
2023-02-12T07:05:16.787Z,1.67
2023-02-12T07:07:49.150Z,1.67
2023-02-12T07:10:23.525Z,1.67
2023-02-12T07:12:55.743Z,1.65
2023-02-12T07:15:27.917Z,1.64
2023-02-12T07:18:00.229Z,1.67
2023-02-12T07:20:32.412Z,1.70
2023-02-12T07:23:04.746Z,1.72
2023-02-12T07:25:37.033Z,1.72
2023-02-12T07:28:09.367Z,1.73
2023-02-12T07:30:42.779Z,1.75
2023-02-12T07:33:17.411Z,1.74
2023-02-12T07:35:49.701Z,1.71
2023-02-12T07:38:22.034Z,1.68
2023-02-12T07:40:54.254Z,1.70
2023-02-12T07:43:26.502Z,1.73
2023-02-12T07:46:06.669Z,1.76
2023-02-12T07:48:39.016Z,1.78
2023-02-12T07:51:13.592Z,1.81
2023-02-12T07:53:46.018Z,1.81
2023-02-12T07:56:21.668Z,1.83
2023-02-12T07:58:55.007Z,1.84
2023-02-12T08:01:29.245Z,1.84
2023-02-12T08:04:03.696Z,1.89
2023-02-12T08:06:38.989Z,1.93
2023-02-12T08:09:14.356Z,1.94
2023-02-12T08:11:47.372Z,1.98
2023-02-12T08:14:22.585Z,1.99
2023-02-12T08:16:55.300Z,2.00
2023-02-12T08:19:27.675Z,2.02
2023-02-12T08:22:02.463Z,2.02
2023-02-12T08:24:36.082Z,2.06
2023-02-12T08:27:08.286Z,2.11
2023-02-12T08:29:40.705Z,2.14
2023-02-12T08:32:14.458Z,2.19
2023-02-12T08:34:46.720Z,2.25
2023-02-12T08:37:22.491Z,2.28
2023-02-12T08:39:54.865Z,2.28
2023-02-12T08:42:28.162Z,2.29
2023-02-12T08:45:00.407Z,2.27
2023-02-12T08:47:32.658Z,2.27
2023-02-12T08:50:05.028Z,2.31
2023-02-12T08:52:38.755Z,2.35
2023-02-12T08:55:11.487Z,2.39
2023-02-12T08:57:44.854Z,2.43
2023-02-12T09:00:18.559Z,2.49
2023-02-12T09:02:52.650Z,2.52
2023-02-12T09:05:25.035Z,2.56
2023-02-12T09:08:00.161Z,2.65
2023-02-12T09:10:32.616Z,2.77
2023-02-12T09:13:04.732Z,2.76
2023-02-12T09:15:39.455Z,2.74
2023-02-12T09:18:12.062Z,2.72
2023-02-12T09:20:46.556Z,2.75
2023-02-12T09:23:18.901Z,2.75
2023-02-12T09:25:53.747Z,2.79
2023-02-12T09:28:26.671Z,2.84
2023-02-12T09:30:59.044Z,3.00
2023-02-12T09:33:31.426Z,4.36
2023-02-12T09:36:11.125Z,7.50
2023-02-12T09:38:44.075Z,8.61
2023-02-12T09:41:48.974Z,10.32
2023-02-12T09:44:28.638Z,12.42
2023-02-12T09:47:04.989Z,14.29
2023-02-12T09:49:57.385Z,15.65
2023-02-12T09:52:31.907Z,15.90
2023-02-12T09:55:04.940Z,14.39
2023-02-12T09:57:39.384Z,13.67
2023-02-12T10:00:16.898Z,13.80
2023-02-12T10:02:51.988Z,13.91
2023-02-12T10:05:28.694Z,13.54
2023-02-12T10:08:24.601Z,13.29
2023-02-12T10:11:02.090Z,13.40
2023-02-12T10:13:42.518Z,14.14
2023-02-12T10:16:22.387Z,15.34
2023-02-12T10:19:06.852Z,15.72
2023-02-12T10:21:51.202Z,15.68
2023-02-12T10:24:45.505Z,16.04
2023-02-12T10:27:19.227Z,16.59
2023-02-12T10:29:53.242Z,17.24
2023-02-12T10:32:29.603Z,17.58
2023-02-12T10:35:03.601Z,16.99
2023-02-12T10:37:41.976Z,17.11
2023-02-12T10:40:22.495Z,17.22
2023-02-12T10:42:55.571Z,17.37
2023-02-12T10:45:31.395Z,18.22
2023-02-12T10:48:12.505Z,18.87
2023-02-12T10:51:05.147Z,19.66
2023-02-12T10:53:39.369Z,19.93
2023-02-12T10:56:18.512Z,20.47
2023-02-12T10:58:59.438Z,20.98
2023-02-12T11:01:34.512Z,21.16
2023-02-12T11:04:28.649Z,21.91
2023-02-12T11:07:03.658Z,21.92
2023-02-12T11:09:40.811Z,22.48
2023-02-12T11:12:27.530Z,23.01
2023-02-12T11:15:01.803Z,23.24
2023-02-12T11:17:38.692Z,23.34
2023-02-12T11:20:30.752Z,23.27
2023-02-12T11:23:06.436Z,22.37
2023-02-12T11:25:56.013Z,21.23
2023-02-12T11:28:28.773Z,20.28
2023-02-12T11:31:04.577Z,19.39
2023-02-12T11:33:39.214Z,17.93
2023-02-12T11:36:22.155Z,17.12
2023-02-12T11:38:57.416Z,17.68
2023-02-12T11:41:36.602Z,17.59
2023-02-12T11:44:14.623Z,16.51
2023-02-12T11:46:52.613Z,15.54
2023-02-12T11:49:34.428Z,14.91
2023-02-12T11:52:08.037Z,14.27
2023-02-12T11:54:50.323Z,13.72
2023-02-12T11:57:40.821Z,13.28
2023-02-12T12:00:16.974Z,12.94
2023-02-12T12:03:01.934Z,12.72
2023-02-12T12:05:40.077Z,12.60
2023-02-12T12:08:21.243Z,12.58
2023-02-12T12:10:59.879Z,12.89
2023-02-12T12:13:38.647Z,13.08
2023-02-12T12:16:33.100Z,12.80
2023-02-12T12:19:30.090Z,12.41
2023-02-12T12:22:09.797Z,11.95
2023-02-12T12:24:49.074Z,11.62
2023-02-12T12:30:42.562Z,11.34
2023-02-12T12:33:24.925Z,11.23
2023-02-12T12:36:08.581Z,11.23
2023-02-12T12:38:53.657Z,11.23
2023-02-12T12:41:33.953Z,11.03
2023-02-12T12:44:21.865Z,10.67
2023-02-12T12:47:06.472Z,10.31
2023-02-12T12:50:03.401Z,10.23
2023-02-12T12:53:10.829Z,10.27
2023-02-12T12:56:08.707Z,10.64
2023-02-12T12:58:52.402Z,11.11
2023-02-12T13:01:45.901Z,10.94
2023-02-12T13:04:50.260Z,10.39
2023-02-12T13:07:33.924Z,10.05
2023-02-12T13:10:24.373Z,9.64
2023-02-12T13:13:19.583Z,9.18
2023-02-12T13:16:02.673Z,8.98
2023-02-12T13:18:46.980Z,8.78
2023-02-12T13:21:33.560Z,8.69
2023-02-12T13:24:12.729Z,8.73
2023-02-12T13:26:53.925Z,8.84
2023-02-12T13:29:31.135Z,8.92
2023-02-12T13:32:07.465Z,8.81
2023-02-12T13:34:44.403Z,8.53
2023-02-12T13:37:21.739Z,8.34
2023-02-12T13:39:59.635Z,8.24
2023-02-12T13:42:44.987Z,7.84
2023-02-12T13:45:28.840Z,7.33
2023-02-12T13:48:19.883Z,6.83
2023-02-12T13:51:01.272Z,6.51
2023-02-12T13:53:47.101Z,6.21
2023-02-12T13:56:33.712Z,5.93
2023-02-12T13:59:26.051Z,5.77
2023-02-12T14:01:58.826Z,5.67
2023-02-12T14:04:36.627Z,5.60
2023-02-12T14:07:12.813Z,5.51
2023-02-12T14:09:47.650Z,5.46
2023-02-12T14:12:35.518Z,5.38
2023-02-12T14:15:21.840Z,5.31
2023-02-12T14:18:05.328Z,5.25
2023-02-12T14:20:40.244Z,5.21
2023-02-12T14:23:32.054Z,5.18
2023-02-12T14:26:10.892Z,5.13
2023-02-12T14:28:52.702Z,5.11
2023-02-12T14:31:34.589Z,5.11
2023-02-12T14:34:43.817Z,5.11
2023-02-12T14:37:44.173Z,5.12
2023-02-12T14:40:47.208Z,5.10
2023-02-12T14:43:55.906Z,5.07
2023-02-12T14:46:48.924Z,5.02
2023-02-12T14:49:27.044Z,4.97
2023-02-12T14:52:05.054Z,4.91
2023-02-12T14:54:42.422Z,4.87
2023-02-12T14:57:23.913Z,4.86
2023-02-12T14:59:59.093Z,4.89
2023-02-12T15:02:34.347Z,4.92
2023-02-12T15:05:14.932Z,4.94
2023-02-12T15:07:55.690Z,4.91
2023-02-12T15:10:33.878Z,4.92
2023-02-12T15:13:25.473Z,4.91
2023-02-12T15:16:02.906Z,4.94
2023-02-12T15:18:51.799Z,4.94
2023-02-12T15:21:29.636Z,4.92
2023-02-12T15:24:05.146Z,4.92
2023-02-12T15:26:41.780Z,4.90
2023-02-12T15:29:28.306Z,4.91
2023-02-12T15:32:03.843Z,4.92
2023-02-12T15:34:39.077Z,4.90
2023-02-12T15:37:20.306Z,4.86
2023-02-12T15:39:56.074Z,4.82
2023-02-12T15:42:32.982Z,4.80
2023-02-12T15:45:29.567Z,4.79
2023-02-12T15:48:12.372Z,4.76
2023-02-12T15:50:58.695Z,4.72
2023-02-12T15:53:32.275Z,4.64
2023-02-12T15:56:05.688Z,4.54
2023-02-12T15:58:43.772Z,4.39
2023-02-12T16:01:21.502Z,4.26
2023-02-12T16:03:55.630Z,4.13
2023-02-12T16:06:29.665Z,4.02
2023-02-12T16:09:07.564Z,3.91
2023-02-12T16:11:40.596Z,3.81
2023-02-12T16:14:24.507Z,3.71
2023-02-12T16:16:59.399Z,3.62
2023-02-12T16:19:33.787Z,3.54
2023-02-12T16:22:11.486Z,3.48
2023-02-12T16:24:50.508Z,3.40
2023-02-12T16:27:24.509Z,3.32
2023-02-12T16:29:59.215Z,3.25
2023-02-12T16:32:37.656Z,3.16
2023-02-12T16:35:28.408Z,3.07
2023-02-12T16:38:27.790Z,2.99
2023-02-12T16:41:21.161Z,2.89
2023-02-12T16:44:11.788Z,2.82
2023-02-12T16:46:47.998Z,2.78
2023-02-12T16:49:22.407Z,2.73
2023-02-12T16:51:56.757Z,2.69
2023-02-12T16:54:32.083Z,2.68
2023-02-12T16:57:04.665Z,2.65
2023-02-12T16:59:43.323Z,2.61
2023-02-12T17:02:16.736Z,2.57
2023-02-12T17:04:49.258Z,2.57
2023-02-12T17:07:25.818Z,2.57
2023-02-12T17:09:58.032Z,2.57
2023-02-12T17:12:30.532Z,2.55
2023-02-12T17:15:07.776Z,2.51
2023-02-12T17:17:40.009Z,2.47
2023-02-12T17:20:14.229Z,2.43
2023-02-12T17:22:51.502Z,2.42
2023-02-12T17:25:23.737Z,2.42
2023-02-12T17:27:55.959Z,2.38
2023-02-12T17:30:32.448Z,2.35
2023-02-12T17:33:04.792Z,2.29
2023-02-12T17:35:38.294Z,2.24
2023-02-12T17:38:10.864Z,2.18
2023-02-12T17:40:43.186Z,2.16
2023-02-12T17:43:16.165Z,2.15
2023-02-12T17:45:48.520Z,2.14
2023-02-12T17:48:23.497Z,2.13
2023-02-12T17:50:58.471Z,2.07
2023-02-12T17:53:30.929Z,2.01
2023-02-12T17:56:03.208Z,1.97
2023-02-12T17:58:38.563Z,1.94
2023-02-12T18:01:13.967Z,1.87
2023-02-12T18:03:46.781Z,1.79
2023-02-12T18:06:25.680Z,1.74
2023-02-12T18:08:59.376Z,1.71
2023-02-12T18:11:33.049Z,1.65
2023-02-12T18:14:05.915Z,1.57
2023-02-12T18:16:38.655Z,1.53
2023-02-12T18:19:11.291Z,1.50
2023-02-12T18:21:44.104Z,1.49
2023-02-12T18:24:16.529Z,1.50
2023-02-12T18:26:49.049Z,1.49
2023-02-12T18:29:21.604Z,1.49
2023-02-12T18:31:55.154Z,1.49
2023-02-12T18:34:27.724Z,1.50
2023-02-12T18:36:59.996Z,1.51
2023-02-12T18:39:32.505Z,1.53
2023-02-12T18:42:05.469Z,1.53
2023-02-12T18:44:37.743Z,1.49
2023-02-12T18:47:10.372Z,1.45
2023-02-12T18:49:42.511Z,1.41
2023-02-12T18:52:15.064Z,1.42
2023-02-12T18:54:47.345Z,1.43
2023-02-12T18:57:19.716Z,1.43
2023-02-12T18:59:51.939Z,1.47
2023-02-12T19:02:24.248Z,1.50
2023-02-12T19:04:56.759Z,1.54
2023-02-12T19:07:29.078Z,1.59
2023-02-12T19:10:01.367Z,1.63
2023-02-12T19:12:33.692Z,1.66
2023-02-12T19:15:07.180Z,1.69
2023-02-12T19:17:39.521Z,1.73
2023-02-12T19:20:14.759Z,1.76
2023-02-12T19:22:47.316Z,1.77
2023-02-12T19:25:20.465Z,1.78
2023-02-12T19:27:53.296Z,1.80
2023-02-12T19:30:25.741Z,1.81
2023-02-12T19:32:58.384Z,1.84
2023-02-12T19:35:30.608Z,1.89
2023-02-12T19:38:03.120Z,1.92
2023-02-12T19:40:35.365Z,1.93
2023-02-12T19:43:07.611Z,1.97
2023-02-12T19:45:39.879Z,2.00
2023-02-12T19:48:12.076Z,2.01
2023-02-12T19:50:49.282Z,2.06
2023-02-12T19:53:21.624Z,2.13
2023-02-12T19:55:54.257Z,2.16
2023-02-12T19:58:26.418Z,2.20
2023-02-12T20:00:58.707Z,2.25
2023-02-12T20:03:30.998Z,2.30
2023-02-12T20:06:09.684Z,2.38
2023-02-12T20:08:43.222Z,2.44
2023-02-12T20:11:20.247Z,2.49
2023-02-12T20:13:52.962Z,2.53
2023-02-12T20:16:31.187Z,2.56
2023-02-12T20:19:07.112Z,2.57
2023-02-12T20:21:39.812Z,2.59
2023-02-12T20:24:12.335Z,2.64
2023-02-12T20:26:44.685Z,2.67
2023-02-12T20:29:19.023Z,2.67
2023-02-12T20:31:51.790Z,2.66
2023-02-12T20:34:24.280Z,2.67
2023-02-12T20:36:56.563Z,2.69
2023-02-12T20:39:28.908Z,2.71
2023-02-12T20:42:01.104Z,2.73
2023-02-12T20:44:34.224Z,2.72
2023-02-12T20:47:06.982Z,2.73
2023-02-12T20:49:39.777Z,2.74
2023-02-12T20:52:12.232Z,2.75
2023-02-12T20:54:46.395Z,2.78
2023-02-12T20:57:20.311Z,2.78
2023-02-12T20:59:52.915Z,2.78
2023-02-12T21:02:25.407Z,2.76
2023-02-12T21:04:57.805Z,2.75
2023-02-12T21:07:30.106Z,2.75
2023-02-12T21:10:05.901Z,2.76
2023-02-12T21:12:38.152Z,2.76
2023-02-12T21:15:14.732Z,2.73
2023-02-12T21:17:46.985Z,2.72
2023-02-12T21:20:19.632Z,2.72
2023-02-12T21:22:51.989Z,2.73
2023-02-12T21:25:24.746Z,2.75
2023-02-12T21:28:01.417Z,2.77
2023-02-12T21:30:34.058Z,2.78
2023-02-12T21:33:06.633Z,2.79
2023-02-12T21:35:41.954Z,2.81
2023-02-12T21:38:14.442Z,2.79
2023-02-12T21:40:47.027Z,2.78
2023-02-12T21:43:19.462Z,2.78
2023-02-12T21:45:56.362Z,2.80
2023-02-12T21:48:29.382Z,2.84
2023-02-12T21:51:02.681Z,2.84
2023-02-12T21:53:35.235Z,2.84
2023-02-12T21:56:08.588Z,2.85
2023-02-12T21:58:41.272Z,2.82
2023-02-12T22:01:19.318Z,2.82
2023-02-12T22:03:53.328Z,2.84
2023-02-12T22:06:29.054Z,2.83
2023-02-12T22:09:06.622Z,2.84
2023-02-12T22:11:41.915Z,2.82
2023-02-12T22:14:19.344Z,2.84
2023-02-12T22:16:55.627Z,2.84
2023-02-12T22:19:35.390Z,2.83
2023-02-12T22:22:08.244Z,2.81
2023-02-12T22:24:45.795Z,2.82
2023-02-12T22:27:20.497Z,2.81
2023-02-12T22:29:53.430Z,2.82
2023-02-12T22:32:29.122Z,2.82
2023-02-12T22:35:01.412Z,2.83
2023-02-12T22:37:33.825Z,2.82
2023-02-12T22:40:07.103Z,2.83
2023-02-12T22:42:39.322Z,2.84
2023-02-12T22:45:12.401Z,2.85
2023-02-12T22:47:44.596Z,2.84
2023-02-12T22:50:20.272Z,2.83
2023-02-12T22:52:52.809Z,2.83
2023-02-12T22:55:26.334Z,2.84
2023-02-12T22:57:59.673Z,2.85
2023-02-12T23:00:32.104Z,2.86
2023-02-12T23:03:04.868Z,2.89
2023-02-12T23:05:39.908Z,2.93
2023-02-12T23:08:12.107Z,2.95
2023-02-12T23:10:45.221Z,2.95
2023-02-12T23:13:28.977Z,2.95
2023-02-12T23:16:02.101Z,2.96
2023-02-12T23:18:35.436Z,2.96
2023-02-12T23:21:12.281Z,2.96
2023-02-12T23:23:44.470Z,2.95
2023-02-12T23:26:19.378Z,2.96
2023-02-12T23:28:59.389Z,2.97
2023-02-12T23:31:31.842Z,2.98
2023-02-12T23:34:04.400Z,3.00
2023-02-12T23:36:42.031Z,3.02
2023-02-12T23:39:15.505Z,3.04
2023-02-12T23:41:47.788Z,3.03
2023-02-12T23:44:20.063Z,3.04
2023-02-12T23:46:54.013Z,3.05
2023-02-12T23:49:26.696Z,3.07
2023-02-12T23:51:58.955Z,3.08
2023-02-12T23:54:32.016Z,3.08
2023-02-12T23:57:04.354Z,3.09
2023-02-12T23:59:37.053Z,3.09
